createdAt,value
2022-09-05T00:00:04.107Z,82.59
2022-09-05T00:02:48.776Z,83.74
2022-09-05T00:05:36.403Z,84.77
2022-09-05T00:08:16.425Z,84.92
2022-09-05T00:11:40.626Z,86.20
2022-09-05T00:13:40.019Z,83.70
2022-09-05T00:16:32.218Z,86.24
2022-09-05T00:24:22.491Z,86.38
2022-09-05T00:24:29.055Z,87.98
2022-09-05T00:25:38.543Z,89.33
2022-09-05T00:28:25.837Z,89.18
2022-09-05T00:31:55.646Z,90.26
2022-09-05T00:34:22.260Z,90.93
2022-09-05T00:36:53.671Z,90.87
2022-09-05T00:39:24.021Z,89.96
2022-09-05T00:41:53.419Z,90.96
2022-09-05T00:44:24.537Z,89.27
2022-09-05T00:46:57.979Z,89.66
2022-09-05T00:49:30.191Z,91.31
2022-09-05T00:52:02.050Z,90.97
2022-09-05T00:54:57.042Z,91.82
2022-09-05T00:57:40.323Z,91.61
2022-09-05T01:00:17.596Z,88.54
2022-09-05T01:03:26.636Z,88.98
2022-09-05T01:06:17.571Z,92.09
2022-09-05T01:09:09.255Z,92.80
2022-09-05T01:11:54.061Z,91.56
2022-09-05T01:14:32.102Z,90.04
2022-09-05T01:17:09.871Z,89.64
2022-09-05T01:19:52.188Z,90.73
2022-09-05T01:22:40.058Z,92.88
2022-09-05T01:25:16.456Z,95.06
2022-09-05T01:29:16.717Z,93.92
2022-09-05T01:30:42.980Z,92.58
2022-09-05T01:33:20.920Z,90.67
2022-09-05T01:36:22.654Z,91.33
2022-09-05T01:39:45.524Z,93.23
2022-09-05T01:41:53.290Z,94.50
2022-09-05T01:44:31.798Z,93.31
2022-09-05T01:47:10.543Z,92.76
2022-09-05T01:49:47.390Z,94.79
2022-09-05T01:52:26.023Z,95.43
2022-09-05T01:55:07.544Z,94.83
2022-09-05T01:57:41.348Z,95.36
2022-09-05T02:00:13.410Z,95.54
2022-09-05T02:02:53.122Z,96.46
2022-09-05T02:05:48.942Z,95.17
2022-09-05T02:08:47.899Z,95.96
2022-09-05T02:11:36.166Z,95.92
2022-09-05T02:14:09.449Z,99.27
2022-09-05T02:16:44.720Z,100.00
2022-09-05T02:19:18.005Z,100.00
2022-09-05T02:21:55.674Z,100.00
2022-09-05T02:24:28.313Z,100.00
2022-09-05T02:27:07.426Z,100.00
2022-09-05T02:29:42.870Z,100.00
2022-09-05T02:32:14.826Z,100.00
2022-09-05T02:34:53.713Z,100.00
2022-09-05T02:38:31.701Z,100.00
2022-09-05T02:45:01.505Z,100.00
2022-09-05T02:45:20.115Z,100.00
2022-09-05T02:46:05.651Z,100.00
2022-09-05T02:48:48.549Z,100.00
2022-09-05T02:57:26.459Z,100.00
2022-09-05T02:57:27.378Z,100.00
2022-09-05T02:57:40.449Z,100.00
2022-09-05T03:00:07.724Z,100.00
2022-09-05T03:02:43.921Z,100.00
2022-09-05T03:05:19.003Z,100.00
2022-09-05T03:08:08.717Z,100.00
2022-09-05T03:11:05.318Z,100.00
2022-09-05T03:14:12.406Z,100.00
2022-09-05T03:17:25.634Z,100.00
2022-09-05T03:20:16.718Z,100.00
2022-09-05T03:23:09.575Z,100.00
2022-09-05T03:26:05.179Z,100.00
2022-09-05T03:29:17.722Z,100.00
2022-09-05T03:32:17.738Z,100.00
2022-09-05T03:34:56.807Z,100.00
2022-09-05T03:37:49.116Z,100.00
2022-09-05T03:40:37.250Z,100.00
2022-09-05T03:43:25.843Z,100.00
2022-09-05T03:46:03.918Z,100.00
2022-09-05T03:52:13.126Z,100.00
2022-09-05T03:57:11.960Z,100.00
2022-09-05T03:57:13.047Z,100.00
2022-09-05T03:58:55.322Z,100.00
2022-09-05T04:02:37.359Z,100.00
2022-09-05T04:08:17.039Z,100.00
2022-09-05T04:08:20.442Z,100.00
2022-09-05T04:09:53.231Z,100.00
2022-09-05T04:12:25.228Z,100.00
2022-09-05T04:14:56.422Z,100.00
2022-09-05T04:17:31.134Z,100.00
2022-09-05T04:20:02.709Z,100.00
2022-09-05T04:22:39.628Z,100.00
2022-09-05T04:25:13.431Z,100.00
2022-09-05T04:27:50.250Z,100.00
2022-09-05T04:30:38.150Z,100.00
2022-09-05T04:33:16.255Z,100.00
2022-09-05T04:35:53.866Z,100.00
2022-09-05T04:38:37.878Z,100.00
2022-09-05T04:41:09.661Z,100.00
2022-09-05T04:43:41.653Z,100.00
2022-09-05T04:46:18.839Z,100.00
2022-09-05T04:48:52.306Z,100.00
2022-09-05T04:51:44.161Z,100.00
2022-09-05T04:54:27.630Z,100.00
2022-09-05T04:57:13.624Z,100.00
2022-09-05T05:02:38.109Z,100.00
2022-09-05T05:06:11.231Z,100.00
2022-09-05T05:06:13.497Z,100.00
2022-09-05T05:08:31.716Z,100.00
2022-09-05T05:17:55.226Z,100.00
2022-09-05T05:17:58.767Z,100.00
2022-09-05T05:18:08.797Z,100.00
2022-09-05T05:19:57.894Z,100.00
2022-09-05T05:22:34.111Z,100.00
2022-09-05T05:25:01.952Z,100.00
2022-09-05T05:27:35.431Z,100.00
2022-09-05T05:30:05.429Z,100.00
2022-09-05T05:32:45.691Z,100.00
2022-09-05T05:35:16.057Z,100.00
2022-09-05T05:37:46.639Z,100.00
2022-09-05T05:40:21.245Z,100.00
2022-09-05T05:42:49.017Z,100.00
2022-09-05T05:45:18.519Z,100.00
2022-09-05T05:47:50.468Z,100.00
2022-09-05T05:50:33.116Z,100.00
2022-09-05T05:53:28.994Z,100.00
2022-09-05T05:56:29.099Z,100.00
2022-09-05T05:59:06.498Z,100.00
2022-09-05T06:02:02.201Z,100.00
2022-09-05T06:04:49.259Z,100.00
2022-09-05T06:07:23.822Z,100.00
2022-09-05T06:14:52.690Z,100.00
2022-09-05T06:15:00.312Z,99.00
2022-09-05T06:16:41.247Z,95.58
2022-09-05T06:19:46.994Z,96.96
2022-09-05T06:22:44.082Z,97.44
2022-09-05T06:25:47.111Z,96.47
2022-09-05T06:28:22.134Z,89.69
2022-09-05T06:31:29.252Z,89.30
2022-09-05T06:33:53.111Z,92.96
2022-09-05T06:36:43.846Z,96.02
2022-09-05T06:39:17.540Z,96.20
2022-09-05T06:41:58.140Z,94.53
2022-09-05T06:44:42.439Z,98.97
2022-09-05T06:47:23.032Z,95.91
2022-09-05T06:50:24.107Z,92.36
2022-09-05T06:53:35.318Z,92.09
2022-09-05T06:56:12.719Z,92.81
2022-09-05T06:59:34.275Z,93.35
2022-09-05T07:02:08.499Z,89.59
2022-09-05T07:05:23.702Z,89.16
2022-09-05T07:07:35.723Z,88.62
2022-09-05T07:10:34.635Z,89.41
2022-09-05T07:13:00.440Z,91.39
2022-09-05T07:15:37.030Z,93.57
2022-09-05T07:18:13.536Z,92.67
2022-09-05T07:21:16.471Z,92.24
2022-09-05T07:24:09.021Z,87.96
2022-09-05T07:26:53.601Z,87.73
2022-09-05T07:29:29.552Z,86.31
2022-09-05T07:31:58.330Z,85.42
2022-09-05T07:34:28.379Z,84.63
2022-09-05T07:37:14.646Z,82.76
2022-09-05T07:39:46.482Z,82.54
2022-09-05T07:42:17.780Z,80.74
2022-09-05T07:44:50.153Z,78.70
2022-09-05T07:47:22.139Z,77.55
2022-09-05T07:50:13.937Z,78.27
2022-09-05T07:56:53.303Z,76.49
2022-09-05T07:56:59.518Z,76.89
2022-09-05T07:58:21.304Z,75.80
2022-09-05T08:00:54.505Z,76.13
2022-09-05T08:03:26.582Z,74.71
2022-09-05T08:05:55.413Z,73.17
2022-09-05T08:08:25.580Z,73.50
2022-09-05T08:11:24.317Z,72.08
2022-09-05T08:13:53.403Z,72.09
2022-09-05T08:16:34.795Z,70.02
2022-09-05T08:19:12.483Z,68.95
2022-09-05T08:21:43.851Z,69.63
2022-09-05T08:24:14.447Z,69.37
2022-09-05T08:26:47.051Z,69.67
2022-09-05T08:29:26.742Z,68.74
2022-09-05T08:31:58.034Z,69.88
2022-09-05T08:34:44.903Z,68.56
2022-09-05T08:37:15.167Z,67.30
2022-09-05T08:39:50.490Z,64.42
2022-09-05T08:42:49.349Z,62.86
2022-09-05T08:46:44.897Z,65.08
2022-09-05T08:48:39.878Z,63.57
2022-09-05T08:51:25.772Z,63.83
2022-09-05T08:54:08.827Z,63.25
2022-09-05T08:56:41.013Z,61.97
2022-09-05T08:59:31.667Z,61.71
2022-09-05T09:02:47.356Z,60.56
2022-09-05T09:05:14.185Z,61.11
2022-09-05T09:07:51.297Z,60.55
2022-09-05T09:10:40.351Z,60.06
2022-09-05T09:13:20.102Z,58.14
2022-09-05T09:15:53.028Z,59.05
2022-09-05T09:18:21.319Z,57.63
2022-09-05T09:20:53.803Z,55.48
2022-09-05T09:23:41.672Z,55.64
2022-09-05T09:26:15.748Z,54.97
2022-09-05T09:28:51.719Z,56.31
2022-09-05T09:31:37.100Z,54.88
2022-09-05T09:34:18.238Z,55.07
2022-09-05T09:37:15.248Z,54.74
2022-09-05T09:40:02.499Z,56.24
2022-09-05T09:42:34.315Z,53.56
2022-09-05T09:45:29.043Z,53.44
2022-09-05T09:48:34.743Z,52.52
2022-09-05T09:51:15.016Z,54.32
2022-09-05T09:53:53.090Z,52.88
2022-09-05T09:56:55.778Z,51.17
2022-09-05T09:59:30.925Z,50.10
2022-09-05T10:03:37.675Z,50.46
2022-09-05T10:10:35.371Z,49.70
2022-09-05T10:10:55.201Z,50.44
2022-09-05T10:14:49.519Z,48.11
2022-09-05T10:17:33.640Z,47.17
2022-09-05T10:20:29.495Z,48.17
2022-09-05T10:23:11.076Z,49.10
2022-09-05T10:25:58.249Z,46.14
2022-09-05T10:28:38.616Z,46.37
2022-09-05T10:33:05.262Z,46.77
2022-09-05T10:35:17.910Z,45.28
2022-09-05T10:37:02.625Z,45.36
2022-09-05T10:39:31.454Z,43.94
2022-09-05T10:42:03.612Z,43.96
2022-09-05T10:44:38.829Z,44.73
2022-09-05T10:47:16.688Z,43.88
2022-09-05T10:49:45.532Z,43.77
2022-09-05T10:52:18.115Z,44.08
2022-09-05T10:55:15.209Z,44.48
2022-09-05T10:57:54.285Z,43.19
2022-09-05T11:02:20.101Z,42.75
2022-09-05T11:03:50.180Z,44.07
2022-09-05T11:06:25.141Z,43.23
2022-09-05T11:09:00.653Z,42.86
2022-09-05T11:11:34.695Z,42.84
2022-09-05T11:14:07.196Z,41.96
2022-09-05T11:16:50.666Z,40.24
2022-09-05T11:19:20.115Z,38.83
2022-09-05T11:22:10.308Z,39.74
2022-09-05T11:24:49.508Z,40.90
2022-09-05T11:27:27.004Z,41.57
2022-09-05T11:29:57.367Z,38.68
2022-09-05T11:39:38.118Z,38.15
2022-09-05T11:39:51.484Z,37.85
2022-09-05T11:39:53.052Z,37.22
2022-09-05T11:42:10.027Z,36.35
2022-09-05T11:44:44.944Z,37.28
2022-09-05T11:48:00.900Z,37.74
2022-09-05T11:50:47.924Z,38.45
2022-09-05T11:53:44.643Z,38.17
2022-09-05T11:56:45.488Z,38.79
2022-09-05T11:59:45.005Z,39.41
2022-09-05T12:02:43.603Z,37.74
2022-09-05T12:08:26.227Z,36.89
2022-09-05T12:11:05.371Z,37.38
2022-09-05T12:13:42.450Z,36.95
2022-09-05T12:19:22.978Z,36.44
2022-09-05T12:22:24.010Z,36.79
2022-09-05T12:25:27.525Z,37.88
2022-09-05T12:29:09.759Z,38.61
2022-09-05T12:31:07.280Z,38.03
2022-09-05T12:36:05.165Z,37.35
2022-09-05T12:40:56.856Z,37.13
2022-09-05T12:41:37.137Z,35.99
2022-09-05T12:41:41.218Z,36.38
2022-09-05T12:42:08.440Z,40.07
2022-09-05T12:42:28.170Z,36.60
2022-09-05T12:45:10.253Z,36.80
2022-09-05T12:47:55.446Z,35.09
2022-09-05T12:50:33.406Z,35.51
2022-09-05T12:53:06.747Z,36.55
2022-09-05T12:55:37.367Z,37.28
2022-09-05T13:02:58.813Z,35.48
2022-09-05T13:03:01.347Z,35.84
2022-09-05T13:04:20.106Z,35.52
2022-09-05T13:06:54.823Z,34.19
2022-09-05T13:09:30.789Z,34.49
2022-09-05T13:14:56.092Z,34.93
2022-09-05T13:15:20.120Z,34.43
2022-09-05T13:17:54.219Z,34.98
2022-09-05T13:20:34.098Z,33.96
2022-09-05T13:23:05.495Z,33.22
2022-09-05T13:25:36.091Z,33.39
2022-09-05T13:28:06.303Z,33.10
2022-09-05T13:35:42.204Z,31.58
2022-09-05T13:38:19.616Z,32.64
2022-09-05T13:38:30.571Z,32.06
2022-09-05T13:39:11.100Z,31.93
2022-09-05T13:41:45.088Z,31.26
2022-09-05T13:44:26.495Z,31.24
2022-09-05T13:47:02.067Z,32.92
2022-09-05T13:49:40.383Z,31.73
2022-09-05T13:52:20.699Z,32.05
2022-09-05T13:54:51.723Z,32.92
2022-09-05T13:57:37.869Z,31.91
2022-09-05T14:00:44.979Z,32.02
2022-09-05T14:03:43.910Z,32.21
2022-09-05T14:06:45.592Z,33.46
2022-09-05T14:09:40.103Z,31.49
2022-09-05T14:12:12.564Z,31.29
2022-09-05T14:17:51.894Z,32.75
2022-09-05T14:20:43.027Z,33.23
2022-09-05T14:23:13.396Z,33.17
2022-09-05T14:25:44.163Z,33.46
2022-09-05T14:28:14.119Z,33.49
2022-09-05T14:33:21.172Z,33.31
2022-09-05T14:37:40.123Z,32.23
2022-09-05T14:38:07.914Z,31.36
2022-09-05T14:41:16.866Z,30.54
2022-09-05T14:44:17.423Z,31.20
2022-09-05T14:47:02.625Z,30.28
2022-09-05T14:50:04.151Z,31.19
2022-09-05T14:52:35.513Z,31.24
2022-09-05T15:02:49.947Z,29.86
2022-09-05T15:02:56.426Z,30.21
2022-09-05T15:06:32.995Z,28.09
2022-09-05T15:12:14.425Z,30.02
2022-09-05T15:12:25.815Z,31.81
2022-09-05T15:14:42.093Z,32.39
2022-09-05T15:17:09.758Z,30.72
2022-09-05T15:20:06.689Z,31.78
2022-09-05T15:22:37.311Z,32.06
2022-09-05T15:25:17.888Z,32.11
2022-09-05T15:27:48.108Z,31.98
2022-09-05T15:30:21.450Z,30.61
2022-09-05T15:32:50.777Z,30.62
2022-09-05T15:35:42.959Z,30.52
2022-09-05T15:38:56.289Z,30.81
2022-09-05T15:41:35.646Z,30.65
2022-09-05T15:44:28.389Z,31.01
2022-09-05T15:47:02.085Z,30.66
2022-09-05T15:49:38.450Z,30.19
2022-09-05T15:52:12.693Z,29.98
2022-09-05T15:54:51.207Z,29.93
2022-09-05T15:57:25.480Z,30.95
2022-09-05T16:00:04.690Z,29.84
2022-09-05T16:02:39.021Z,31.28
2022-09-05T16:10:26.668Z,30.17
2022-09-05T16:10:36.595Z,29.63
2022-09-05T16:12:17.118Z,31.00
2022-09-05T16:16:40.419Z,31.98
2022-09-05T16:23:14.637Z,32.14
2022-09-05T16:23:32.670Z,31.91
2022-09-05T16:23:59.316Z,33.31
2022-09-05T16:26:44.129Z,34.03
2022-09-05T16:29:25.923Z,34.21
2022-09-05T16:32:37.447Z,34.25
2022-09-05T16:35:26.341Z,34.60
2022-09-05T16:38:01.593Z,34.64
2022-09-05T16:40:41.276Z,35.10
2022-09-05T16:43:19.102Z,35.07
2022-09-05T16:45:51.134Z,35.36
2022-09-05T16:48:37.804Z,34.87
2022-09-05T16:51:15.756Z,34.86
2022-09-05T16:53:50.814Z,34.76
2022-09-05T16:56:29.965Z,35.32
2022-09-05T16:58:59.751Z,35.63
2022-09-05T17:01:54.738Z,34.38
2022-09-05T17:05:03.113Z,35.32
2022-09-05T17:07:42.579Z,35.28
2022-09-05T17:10:12.255Z,35.34
2022-09-05T17:12:40.451Z,35.25
2022-09-05T17:15:11.500Z,35.54
2022-09-05T17:18:19.152Z,35.56
2022-09-05T17:20:48.265Z,35.73
2022-09-05T17:26:36.979Z,35.76
2022-09-05T17:29:31.062Z,35.69
2022-09-05T17:29:36.091Z,36.33
2022-09-05T17:31:58.430Z,35.99
2022-09-05T17:34:50.285Z,36.49
2022-09-05T17:37:34.260Z,36.73
2022-09-05T17:40:41.824Z,38.60
2022-09-05T17:43:28.411Z,38.66
2022-09-05T17:46:09.473Z,39.38
2022-09-05T17:49:18.469Z,39.29
2022-09-05T17:52:23.867Z,40.38
2022-09-05T17:54:53.636Z,41.12
2022-09-05T17:57:45.076Z,42.49
2022-09-05T18:00:49.358Z,42.78
2022-09-05T18:04:08.379Z,43.12
2022-09-05T18:06:54.063Z,44.04
2022-09-05T18:09:59.047Z,44.58
2022-09-05T18:13:13.802Z,45.87
2022-09-05T18:16:04.632Z,46.01
2022-09-05T18:19:28.051Z,46.57
2022-09-05T18:21:25.587Z,46.75
2022-09-05T18:24:00.555Z,47.35
2022-09-05T18:26:29.330Z,47.41
2022-09-05T18:29:05.973Z,48.33
2022-09-05T18:31:59.162Z,48.40
2022-09-05T18:34:44.871Z,49.00
2022-09-05T18:37:50.999Z,49.35
2022-09-05T18:40:39.044Z,50.63
2022-09-05T18:43:13.316Z,50.34
2022-09-05T18:45:52.419Z,50.50
2022-09-05T18:48:29.836Z,50.93
2022-09-05T18:51:15.116Z,51.63
2022-09-05T18:53:47.459Z,51.98
2022-09-05T18:56:22.975Z,51.95
2022-09-05T18:59:01.524Z,52.20
2022-09-05T19:01:43.510Z,53.59
2022-09-05T19:04:17.598Z,53.75
2022-09-05T19:07:09.189Z,53.53
2022-09-05T19:09:37.995Z,55.06
2022-09-05T19:12:33.356Z,55.65
2022-09-05T19:14:56.342Z,54.51
2022-09-05T19:17:32.671Z,55.10
2022-09-05T19:20:31.934Z,55.20
2022-09-05T19:23:09.970Z,56.19
2022-09-05T19:25:41.684Z,57.20
2022-09-05T19:36:44.052Z,57.42
2022-09-05T19:36:50.762Z,56.65
2022-09-05T19:36:54.776Z,57.63
2022-09-05T19:37:13.586Z,58.23
2022-09-05T19:43:01.194Z,58.67
2022-09-05T19:47:34.959Z,58.33
2022-09-05T19:47:42.609Z,58.19
2022-09-05T19:48:07.594Z,58.76
2022-09-05T19:50:37.354Z,59.30
2022-09-05T19:53:07.004Z,58.91
2022-09-05T19:55:36.779Z,58.55
2022-09-05T19:58:19.715Z,60.01
2022-09-05T20:01:00.426Z,60.48
2022-09-05T20:03:38.335Z,60.03
2022-09-05T20:06:15.538Z,62.04
2022-09-05T20:09:09.241Z,60.29
2022-09-05T20:11:45.273Z,60.79
2022-09-05T20:14:23.050Z,62.78
2022-09-05T20:16:52.422Z,64.09
2022-09-05T20:19:28.522Z,63.85
2022-09-05T20:21:59.766Z,65.50
2022-09-05T20:24:47.786Z,64.87
2022-09-05T20:27:17.003Z,62.52
2022-09-05T20:29:55.567Z,62.76
2022-09-05T20:32:39.291Z,63.48
2022-09-05T20:36:40.154Z,62.41
2022-09-05T20:43:15.894Z,63.50
2022-09-05T20:43:19.941Z,63.12
2022-09-05T20:43:57.573Z,63.22
2022-09-05T20:51:29.510Z,63.23
2022-09-05T20:54:04.876Z,64.26
2022-09-05T20:54:19.064Z,64.58
2022-09-05T20:55:09.278Z,64.82
2022-09-05T20:57:47.917Z,67.33
2022-09-05T21:00:17.736Z,66.64
2022-09-05T21:02:55.824Z,67.07
2022-09-05T21:05:29.782Z,65.17
2022-09-05T21:08:23.189Z,66.83
2022-09-05T21:10:55.890Z,67.77
2022-09-05T21:13:27.299Z,68.22
2022-09-05T21:15:55.512Z,68.49
2022-09-05T21:18:28.640Z,67.95
2022-09-05T21:21:06.880Z,65.96
2022-09-05T21:24:00.914Z,66.56
2022-09-05T21:26:47.015Z,67.97
2022-09-05T21:29:16.406Z,67.94
2022-09-05T21:31:46.218Z,68.50
2022-09-05T21:34:23.682Z,66.23
2022-09-05T21:37:03.921Z,65.63
2022-09-05T21:39:38.087Z,66.86
2022-09-05T21:42:39.133Z,66.26
2022-09-05T21:47:39.162Z,67.24
2022-09-05T21:47:53.054Z,67.19
2022-09-05T21:50:30.761Z,67.61
2022-09-05T21:53:21.496Z,68.11
2022-09-05T21:59:17.321Z,65.98
2022-09-05T21:59:18.469Z,67.07
2022-09-05T22:01:50.977Z,66.20
2022-09-05T22:04:16.674Z,66.20
2022-09-05T22:06:48.404Z,65.27
2022-09-05T22:09:17.075Z,64.45
2022-09-05T22:11:50.017Z,65.10
2022-09-05T22:14:19.383Z,65.15
2022-09-05T22:16:47.612Z,64.64
2022-09-05T22:19:17.718Z,65.24
2022-09-05T22:21:45.457Z,65.56
2022-09-05T22:24:13.723Z,65.69
2022-09-05T22:27:01.514Z,64.24
2022-09-05T22:29:34.489Z,65.32
2022-09-05T22:32:02.186Z,66.05
2022-09-05T22:34:29.860Z,65.38
2022-09-05T22:36:57.506Z,65.83
2022-09-05T22:39:36.525Z,64.44
2022-09-05T22:42:07.580Z,65.20
2022-09-05T22:44:40.613Z,64.97
2022-09-05T22:47:08.907Z,66.00
2022-09-05T22:49:37.274Z,65.26
2022-09-05T22:52:05.847Z,65.30
2022-09-05T22:54:33.512Z,65.54
2022-09-05T22:57:01.106Z,64.90
2022-09-05T22:59:28.772Z,65.48
2022-09-05T23:01:57.738Z,66.00
2022-09-05T23:04:25.727Z,64.87
2022-09-05T23:06:53.552Z,65.53
2022-09-05T23:09:21.242Z,67.23
2022-09-05T23:11:48.957Z,67.60
2022-09-05T23:14:16.585Z,67.69
2022-09-05T23:16:44.168Z,67.65
2022-09-05T23:19:13.111Z,68.74
2022-09-05T23:21:40.824Z,69.24
2022-09-05T23:24:08.515Z,67.40
2022-09-05T23:26:36.090Z,68.83
2022-09-05T23:29:03.707Z,68.67
2022-09-05T23:31:31.451Z,69.74
2022-09-05T23:33:59.103Z,70.85
2022-09-05T23:36:28.387Z,69.76
2022-09-05T23:38:56.119Z,69.97
2022-09-05T23:41:23.740Z,70.53
2022-09-05T23:43:51.330Z,71.09
2022-09-05T23:46:18.993Z,72.27
2022-09-05T23:48:46.615Z,72.11
2022-09-05T23:51:14.600Z,70.71
2022-09-05T23:53:43.710Z,70.86
2022-09-05T23:56:12.166Z,72.72
2022-09-05T23:58:39.784Z,74.75
